sensor_id;sensor_type;location;lat;lon;timestamp;temperature;humidity
2869;DHT22;1442;47.448;8.582;2024-03-25T00:00:45;5.30;99.90
2869;DHT22;1442;47.448;8.582;2024-03-25T00:03:12;5.30;99.90
2869;DHT22;1442;47.448;8.582;2024-03-25T00:05:37;5.20;99.90
2869;DHT22;1442;47.448;8.582;2024-03-25T00:08:04;5.20;99.90
2869;DHT22;1442;47.448;8.582;2024-03-25T00:10:31;5.30;99.90
2869;DHT22;1442;47.448;8.582;2024-03-25T00:12:58;5.30;99.90
2869;DHT22;1442;47.448;8.582;2024-03-25T00:15:24;5.20;99.90
2869;DHT22;1442;47.448;8.582;2024-03-25T00:17:51;5.20;99.90
2869;DHT22;1442;47.448;8.582;2024-03-25T00:20:17;5.20;99.90
2869;DHT22;1442;47.448;8.582;2024-03-25T00:22:43;5.20;99.90
2869;DHT22;1442;47.448;8.582;2024-03-25T00:25:09;5.20;99.90
2869;DHT22;1442;47.448;8.582;2024-03-25T00:27:38;5.20;99.90
2869;DHT22;1442;47.448;8.582;2024-03-25T00:30:05;5.20;99.90
2869;DHT22;1442;47.448;8.582;2024-03-25T00:32:32;5.20;99.90
2869;DHT22;1442;47.448;8.582;2024-03-25T00:34:58;5.10;99.90
2869;DHT22;1442;47.448;8.582;2024-03-25T00:37:24;5.10;99.90
2869;DHT22;1442;47.448;8.582;2024-03-25T00:39:50;5.10;99.90
2869;DHT22;1442;47.448;8.582;2024-03-25T00:42:17;5.10;99.90
2869;DHT22;1442;47.448;8.582;2024-03-25T00:44:44;5.10;99.90
2869;DHT22;1442;47.448;8.582;2024-03-25T00:47:11;5.10;99.90
2869;DHT22;1442;47.448;8.582;2024-03-25T00:49:36;5.00;99.90
2869;DHT22;1442;47.448;8.582;2024-03-25T00:52:04;5.00;99.90
2869;DHT22;1442;47.448;8.582;2024-03-25T00:54:30;5.00;99.90
2869;DHT22;1442;47.448;8.582;2024-03-25T00:56:56;4.90;99.90
2869;DHT22;1442;47.448;8.582;2024-03-25T00:59:22;4.80;99.90
2869;DHT22;1442;47.448;8.582;2024-03-25T01:01:50;4.80;99.90
2869;DHT22;1442;47.448;8.582;2024-03-25T01:04:16;4.70;99.90
2869;DHT22;1442;47.448;8.582;2024-03-25T01:06:43;4.70;99.90
2869;DHT22;1442;47.448;8.582;2024-03-25T01:09:09;4.60;99.90
2869;DHT22;1442;47.448;8.582;2024-03-25T01:11:36;4.60;99.90
2869;DHT22;1442;47.448;8.582;2024-03-25T01:14:02;4.60;99.90
2869;DHT22;1442;47.448;8.582;2024-03-25T01:16:29;4.50;99.90
2869;DHT22;1442;47.448;8.582;2024-03-25T01:18:56;4.50;99.90
2869;DHT22;1442;47.448;8.582;2024-03-25T01:21:23;4.40;99.90
2869;DHT22;1442;47.448;8.582;2024-03-25T01:23:50;4.40;99.90
2869;DHT22;1442;47.448;8.582;2024-03-25T01:26:16;4.40;99.90
2869;DHT22;1442;47.448;8.582;2024-03-25T01:28:42;4.40;99.90
2869;DHT22;1442;47.448;8.582;2024-03-25T01:31:09;4.40;99.90
2869;DHT22;1442;47.448;8.582;2024-03-25T01:33:35;4.30;99.90
2869;DHT22;1442;47.448;8.582;2024-03-25T01:36:04;4.30;99.90
2869;DHT22;1442;47.448;8.582;2024-03-25T01:38:30;4.30;99.90
2869;DHT22;1442;47.448;8.582;2024-03-25T01:41:07;4.30;99.90
2869;DHT22;1442;47.448;8.582;2024-03-25T01:43:33;4.30;99.90
2869;DHT22;1442;47.448;8.582;2024-03-25T01:45:59;4.30;99.90
2869;DHT22;1442;47.448;8.582;2024-03-25T01:48:25;4.20;99.90
2869;DHT22;1442;47.448;8.582;2024-03-25T01:50:53;4.20;99.90
2869;DHT22;1442;47.448;8.582;2024-03-25T01:53:20;4.20;99.90
2869;DHT22;1442;47.448;8.582;2024-03-25T01:55:48;4.20;99.90
2869;DHT22;1442;47.448;8.582;2024-03-25T01:58:14;4.20;99.90
2869;DHT22;1442;47.448;8.582;2024-03-25T02:00:43;4.20;99.90
2869;DHT22;1442;47.448;8.582;2024-03-25T02:03:08;4.20;99.90
2869;DHT22;1442;47.448;8.582;2024-03-25T02:05:35;4.10;99.90
2869;DHT22;1442;47.448;8.582;2024-03-25T02:08:02;4.10;99.90
2869;DHT22;1442;47.448;8.582;2024-03-25T02:10:31;4.20;99.90
2869;DHT22;1442;47.448;8.582;2024-03-25T02:12:58;4.10;99.90
2869;DHT22;1442;47.448;8.582;2024-03-25T02:15:25;4.20;99.90
2869;DHT22;1442;47.448;8.582;2024-03-25T02:17:52;4.20;99.90
2869;DHT22;1442;47.448;8.582;2024-03-25T02:20:19;4.20;99.90
2869;DHT22;1442;47.448;8.582;2024-03-25T02:22:44;4.20;99.90
2869;DHT22;1442;47.448;8.582;2024-03-25T02:25:11;4.30;99.90
2869;DHT22;1442;47.448;8.582;2024-03-25T02:27:41;4.30;99.90
2869;DHT22;1442;47.448;8.582;2024-03-25T02:30:09;4.30;99.90
2869;DHT22;1442;47.448;8.582;2024-03-25T02:32:37;4.30;99.90
2869;DHT22;1442;47.448;8.582;2024-03-25T02:35:08;4.30;99.90
2869;DHT22;1442;47.448;8.582;2024-03-25T02:37:35;4.30;99.90
2869;DHT22;1442;47.448;8.582;2024-03-25T02:40:04;4.30;99.90
2869;DHT22;1442;47.448;8.582;2024-03-25T02:42:31;4.20;99.90
2869;DHT22;1442;47.448;8.582;2024-03-25T02:45:00;4.20;99.90
2869;DHT22;1442;47.448;8.582;2024-03-25T02:47:26;4.20;99.90
2869;DHT22;1442;47.448;8.582;2024-03-25T02:49:52;4.20;99.90
2869;DHT22;1442;47.448;8.582;2024-03-25T02:52:18;4.10;99.90
2869;DHT22;1442;47.448;8.582;2024-03-25T02:54:45;4.20;99.90
2869;DHT22;1442;47.448;8.582;2024-03-25T02:57:11;4.20;99.90
2869;DHT22;1442;47.448;8.582;2024-03-25T02:59:38;4.30;99.90
2869;DHT22;1442;47.448;8.582;2024-03-25T03:02:05;4.30;99.90
2869;DHT22;1442;47.448;8.582;2024-03-25T03:04:32;4.30;99.90
2869;DHT22;1442;47.448;8.582;2024-03-25T03:06:58;4.40;99.90
2869;DHT22;1442;47.448;8.582;2024-03-25T03:09:24;4.40;99.90
2869;DHT22;1442;47.448;8.582;2024-03-25T03:11:50;4.40;99.90
2869;DHT22;1442;47.448;8.582;2024-03-25T03:14:17;4.40;99.90
2869;DHT22;1442;47.448;8.582;2024-03-25T03:16:43;4.40;99.90
2869;DHT22;1442;47.448;8.582;2024-03-25T03:19:11;4.40;99.90
2869;DHT22;1442;47.448;8.582;2024-03-25T03:21:36;4.40;99.90
2869;DHT22;1442;47.448;8.582;2024-03-25T03:24:04;4.40;99.90
2869;DHT22;1442;47.448;8.582;2024-03-25T03:26:29;4.50;99.90
2869;DHT22;1442;47.448;8.582;2024-03-25T03:28:56;4.50;99.90
2869;DHT22;1442;47.448;8.582;2024-03-25T03:31:22;4.50;99.90
2869;DHT22;1442;47.448;8.582;2024-03-25T03:33:50;4.60;99.90
2869;DHT22;1442;47.448;8.582;2024-03-25T03:36:19;4.60;99.90
2869;DHT22;1442;47.448;8.582;2024-03-25T03:38:46;4.60;99.90
2869;DHT22;1442;47.448;8.582;2024-03-25T03:41:12;4.60;99.90
2869;DHT22;1442;47.448;8.582;2024-03-25T03:43:39;4.60;99.90
2869;DHT22;1442;47.448;8.582;2024-03-25T03:46:05;4.60;99.90
2869;DHT22;1442;47.448;8.582;2024-03-25T03:48:31;4.60;99.90
2869;DHT22;1442;47.448;8.582;2024-03-25T03:50:57;4.60;99.90
2869;DHT22;1442;47.448;8.582;2024-03-25T03:53:25;4.60;99.90
2869;DHT22;1442;47.448;8.582;2024-03-25T03:55:54;4.60;99.90
2869;DHT22;1442;47.448;8.582;2024-03-25T03:58:21;4.60;99.90
2869;DHT22;1442;47.448;8.582;2024-03-25T04:00:47;4.60;99.90
2869;DHT22;1442;47.448;8.582;2024-03-25T04:03:14;4.60;99.90
2869;DHT22;1442;47.448;8.582;2024-03-25T04:05:40;4.50;99.90
2869;DHT22;1442;47.448;8.582;2024-03-25T04:08:07;4.50;99.90
2869;DHT22;1442;47.448;8.582;2024-03-25T04:10:35;4.50;99.90
2869;DHT22;1442;47.448;8.582;2024-03-25T04:13:03;4.50;99.90
2869;DHT22;1442;47.448;8.582;2024-03-25T04:15:29;4.50;99.90
2869;DHT22;1442;47.448;8.582;2024-03-25T04:17:56;4.50;99.90
2869;DHT22;1442;47.448;8.582;2024-03-25T04:20:22;4.50;99.90
2869;DHT22;1442;47.448;8.582;2024-03-25T04:22:49;4.60;99.90
2869;DHT22;1442;47.448;8.582;2024-03-25T04:25:15;4.60;99.90
2869;DHT22;1442;47.448;8.582;2024-03-25T04:27:43;4.70;99.90
2869;DHT22;1442;47.448;8.582;2024-03-25T04:30:10;4.70;99.90
2869;DHT22;1442;47.448;8.582;2024-03-25T04:32:38;4.70;99.90
2869;DHT22;1442;47.448;8.582;2024-03-25T04:35:04;4.70;99.90
2869;DHT22;1442;47.448;8.582;2024-03-25T04:37:32;4.70;99.90
2869;DHT22;1442;47.448;8.582;2024-03-25T04:39:58;4.70;99.90
2869;DHT22;1442;47.448;8.582;2024-03-25T04:42:24;4.70;99.90
2869;DHT22;1442;47.448;8.582;2024-03-25T04:44:51;4.70;99.90
2869;DHT22;1442;47.448;8.582;2024-03-25T04:47:17;4.70;99.90
2869;DHT22;1442;47.448;8.582;2024-03-25T04:49:43;4.80;99.90
2869;DHT22;1442;47.448;8.582;2024-03-25T04:52:10;4.80;99.90
2869;DHT22;1442;47.448;8.582;2024-03-25T04:54:36;4.80;99.90
2869;DHT22;1442;47.448;8.582;2024-03-25T04:57:02;4.80;99.90
2869;DHT22;1442;47.448;8.582;2024-03-25T04:59:28;4.80;99.90
2869;DHT22;1442;47.448;8.582;2024-03-25T05:01:55;4.80;99.90
2869;DHT22;1442;47.448;8.582;2024-03-25T05:04:21;4.80;99.90
2869;DHT22;1442;47.448;8.582;2024-03-25T05:06:47;4.80;99.90
2869;DHT22;1442;47.448;8.582;2024-03-25T05:09:13;4.80;99.90
2869;DHT22;1442;47.448;8.582;2024-03-25T05:11:38;4.80;99.90
2869;DHT22;1442;47.448;8.582;2024-03-25T05:14:04;4.80;99.90
2869;DHT22;1442;47.448;8.582;2024-03-25T05:16:30;4.80;99.90
2869;DHT22;1442;47.448;8.582;2024-03-25T05:18:57;4.70;99.90
2869;DHT22;1442;47.448;8.582;2024-03-25T05:21:23;4.80;99.90
2869;DHT22;1442;47.448;8.582;2024-03-25T05:23:49;4.80;99.90
2869;DHT22;1442;47.448;8.582;2024-03-25T05:26:14;4.80;99.90
2869;DHT22;1442;47.448;8.582;2024-03-25T05:28:40;4.80;99.90
2869;DHT22;1442;47.448;8.582;2024-03-25T05:31:07;4.80;99.90
2869;DHT22;1442;47.448;8.582;2024-03-25T05:33:33;4.70;99.90
2869;DHT22;1442;47.448;8.582;2024-03-25T05:36:01;4.70;99.90
2869;DHT22;1442;47.448;8.582;2024-03-25T05:38:27;4.70;99.90
2869;DHT22;1442;47.448;8.582;2024-03-25T05:40:53;4.70;99.90
2869;DHT22;1442;47.448;8.582;2024-03-25T05:43:19;4.60;99.90
2869;DHT22;1442;47.448;8.582;2024-03-25T05:45:50;4.60;99.90
2869;DHT22;1442;47.448;8.582;2024-03-25T05:48:16;4.60;99.90
2869;DHT22;1442;47.448;8.582;2024-03-25T05:50:42;4.60;99.90
2869;DHT22;1442;47.448;8.582;2024-03-25T05:53:09;4.70;99.90
2869;DHT22;1442;47.448;8.582;2024-03-25T05:55:35;4.80;99.90
2869;DHT22;1442;47.448;8.582;2024-03-25T05:58:01;4.90;99.90
2869;DHT22;1442;47.448;8.582;2024-03-25T06:00:27;5.00;99.90
2869;DHT22;1442;47.448;8.582;2024-03-25T06:02:53;5.00;99.90
2869;DHT22;1442;47.448;8.582;2024-03-25T06:05:19;5.00;99.90
2869;DHT22;1442;47.448;8.582;2024-03-25T06:07:44;5.00;99.90
2869;DHT22;1442;47.448;8.582;2024-03-25T06:10:12;5.00;99.90
2869;DHT22;1442;47.448;8.582;2024-03-25T06:12:38;5.10;99.90
2869;DHT22;1442;47.448;8.582;2024-03-25T06:15:04;5.10;99.90
2869;DHT22;1442;47.448;8.582;2024-03-25T06:17:30;5.10;99.90
2869;DHT22;1442;47.448;8.582;2024-03-25T06:19:56;5.20;99.90
2869;DHT22;1442;47.448;8.582;2024-03-25T06:22:22;5.30;99.90
2869;DHT22;1442;47.448;8.582;2024-03-25T06:24:48;5.40;99.90
2869;DHT22;1442;47.448;8.582;2024-03-25T06:27:15;5.40;99.90
2869;DHT22;1442;47.448;8.582;2024-03-25T06:29:41;5.50;99.90
2869;DHT22;1442;47.448;8.582;2024-03-25T06:32:07;5.70;99.90
2869;DHT22;1442;47.448;8.582;2024-03-25T06:34:51;5.80;99.90
2869;DHT22;1442;47.448;8.582;2024-03-25T06:37:17;6.00;99.90
2869;DHT22;1442;47.448;8.582;2024-03-25T06:39:43;6.00;99.90
2869;DHT22;1442;47.448;8.582;2024-03-25T06:42:09;6.00;99.90
2869;DHT22;1442;47.448;8.582;2024-03-25T06:44:36;6.00;99.90
2869;DHT22;1442;47.448;8.582;2024-03-25T06:47:02;6.00;99.90
2869;DHT22;1442;47.448;8.582;2024-03-25T06:49:28;6.10;99.90
2869;DHT22;1442;47.448;8.582;2024-03-25T06:51:53;6.20;99.90
2869;DHT22;1442;47.448;8.582;2024-03-25T06:54:19;6.20;99.90
2869;DHT22;1442;47.448;8.582;2024-03-25T06:56:45;6.30;99.90
2869;DHT22;1442;47.448;8.582;2024-03-25T06:59:11;6.30;99.90
2869;DHT22;1442;47.448;8.582;2024-03-25T07:01:38;6.30;99.90
2869;DHT22;1442;47.448;8.582;2024-03-25T07:04:04;6.30;99.90
2869;DHT22;1442;47.448;8.582;2024-03-25T07:06:30;6.40;99.90
2869;DHT22;1442;47.448;8.582;2024-03-25T07:08:55;6.40;99.90
2869;DHT22;1442;47.448;8.582;2024-03-25T07:11:21;6.40;99.90
2869;DHT22;1442;47.448;8.582;2024-03-25T07:13:47;6.40;99.90
2869;DHT22;1442;47.448;8.582;2024-03-25T07:16:13;6.50;99.90
2869;DHT22;1442;47.448;8.582;2024-03-25T07:18:40;6.60;99.90
2869;DHT22;1442;47.448;8.582;2024-03-25T07:21:06;6.60;99.90
2869;DHT22;1442;47.448;8.582;2024-03-25T07:23:32;6.70;99.90
2869;DHT22;1442;47.448;8.582;2024-03-25T07:25:57;6.80;99.90
2869;DHT22;1442;47.448;8.582;2024-03-25T07:28:23;6.90;99.90
2869;DHT22;1442;47.448;8.582;2024-03-25T07:30:50;6.90;99.90
2869;DHT22;1442;47.448;8.582;2024-03-25T07:33:15;6.90;99.90
2869;DHT22;1442;47.448;8.582;2024-03-25T07:35:44;6.90;99.90
2869;DHT22;1442;47.448;8.582;2024-03-25T07:38:10;7.00;99.90
2869;DHT22;1442;47.448;8.582;2024-03-25T07:40:36;7.00;99.90
2869;DHT22;1442;47.448;8.582;2024-03-25T07:43:02;7.00;99.90
2869;DHT22;1442;47.448;8.582;2024-03-25T07:45:27;7.00;99.90
2869;DHT22;1442;47.448;8.582;2024-03-25T07:47:53;7.00;99.90
2869;DHT22;1442;47.448;8.582;2024-03-25T07:50:19;7.10;99.90
2869;DHT22;1442;47.448;8.582;2024-03-25T07:52:47;7.10;99.90
2869;DHT22;1442;47.448;8.582;2024-03-25T07:55:12;7.10;99.90
2869;DHT22;1442;47.448;8.582;2024-03-25T07:57:38;7.10;99.90
2869;DHT22;1442;47.448;8.582;2024-03-25T08:00:05;7.20;99.90
2869;DHT22;1442;47.448;8.582;2024-03-25T08:02:31;7.20;99.90
2869;DHT22;1442;47.448;8.582;2024-03-25T08:04:57;7.20;99.90
2869;DHT22;1442;47.448;8.582;2024-03-25T08:07:23;7.20;99.90
2869;DHT22;1442;47.448;8.582;2024-03-25T08:09:50;7.30;99.90
2869;DHT22;1442;47.448;8.582;2024-03-25T08:12:16;7.40;99.90
2869;DHT22;1442;47.448;8.582;2024-03-25T08:14:42;7.50;99.90
2869;DHT22;1442;47.448;8.582;2024-03-25T08:17:08;7.50;99.90
2869;DHT22;1442;47.448;8.582;2024-03-25T08:19:33;7.60;99.90
2869;DHT22;1442;47.448;8.582;2024-03-25T08:21:59;7.70;99.90
2869;DHT22;1442;47.448;8.582;2024-03-25T08:24:25;7.70;99.90
2869;DHT22;1442;47.448;8.582;2024-03-25T08:26:52;7.80;99.90
2869;DHT22;1442;47.448;8.582;2024-03-25T08:29:18;7.80;99.90
2869;DHT22;1442;47.448;8.582;2024-03-25T08:31:44;7.90;99.90
2869;DHT22;1442;47.448;8.582;2024-03-25T08:34:09;8.00;99.90
2869;DHT22;1442;47.448;8.582;2024-03-25T08:36:35;8.00;99.90
2869;DHT22;1442;47.448;8.582;2024-03-25T08:39:01;8.10;99.90
2869;DHT22;1442;47.448;8.582;2024-03-25T08:41:27;8.20;99.90
2869;DHT22;1442;47.448;8.582;2024-03-25T08:43:54;8.30;99.90
2869;DHT22;1442;47.448;8.582;2024-03-25T08:46:20;8.40;99.90
2869;DHT22;1442;47.448;8.582;2024-03-25T08:48:46;8.40;99.90
2869;DHT22;1442;47.448;8.582;2024-03-25T08:51:12;8.40;99.90
2869;DHT22;1442;47.448;8.582;2024-03-25T08:53:38;8.50;99.90
2869;DHT22;1442;47.448;8.582;2024-03-25T08:56:04;8.50;99.90
2869;DHT22;1442;47.448;8.582;2024-03-25T08:58:29;8.60;99.90
2869;DHT22;1442;47.448;8.582;2024-03-25T09:00:57;8.60;99.90
2869;DHT22;1442;47.448;8.582;2024-03-25T09:03:23;8.60;99.90
2869;DHT22;1442;47.448;8.582;2024-03-25T09:05:48;8.60;99.90
2869;DHT22;1442;47.448;8.582;2024-03-25T09:08:15;8.60;99.90
2869;DHT22;1442;47.448;8.582;2024-03-25T09:10:43;8.70;99.90
2869;DHT22;1442;47.448;8.582;2024-03-25T09:13:27;8.70;99.90
2869;DHT22;1442;47.448;8.582;2024-03-25T09:15:53;8.80;99.90
2869;DHT22;1442;47.448;8.582;2024-03-25T09:18:20;8.80;99.90
2869;DHT22;1442;47.448;8.582;2024-03-25T09:20:46;8.80;99.90
2869;DHT22;1442;47.448;8.582;2024-03-25T09:23:12;8.90;99.90
2869;DHT22;1442;47.448;8.582;2024-03-25T09:25:37;8.80;99.90
2869;DHT22;1442;47.448;8.582;2024-03-25T09:28:04;8.90;99.90
2869;DHT22;1442;47.448;8.582;2024-03-25T09:30:29;8.90;99.90
2869;DHT22;1442;47.448;8.582;2024-03-25T09:32:55;8.90;99.90
2869;DHT22;1442;47.448;8.582;2024-03-25T09:35:23;8.90;99.90
2869;DHT22;1442;47.448;8.582;2024-03-25T09:37:49;8.90;99.90
2869;DHT22;1442;47.448;8.582;2024-03-25T09:40:14;9.00;99.90
2869;DHT22;1442;47.448;8.582;2024-03-25T09:42:45;9.00;99.90
2869;DHT22;1442;47.448;8.582;2024-03-25T09:45:12;9.00;99.90
2869;DHT22;1442;47.448;8.582;2024-03-25T09:47:39;9.00;99.90
2869;DHT22;1442;47.448;8.582;2024-03-25T09:50:06;9.00;99.90
2869;DHT22;1442;47.448;8.582;2024-03-25T09:52:35;9.00;99.90
2869;DHT22;1442;47.448;8.582;2024-03-25T09:55:01;9.10;99.90
2869;DHT22;1442;47.448;8.582;2024-03-25T09:57:27;9.10;99.90
2869;DHT22;1442;47.448;8.582;2024-03-25T09:59:53;9.20;99.90
2869;DHT22;1442;47.448;8.582;2024-03-25T10:02:20;9.20;99.90
2869;DHT22;1442;47.448;8.582;2024-03-25T10:04:47;9.20;99.90
2869;DHT22;1442;47.448;8.582;2024-03-25T10:07:21;9.20;99.90
2869;DHT22;1442;47.448;8.582;2024-03-25T10:09:49;9.20;99.90
2869;DHT22;1442;47.448;8.582;2024-03-25T10:12:15;9.30;99.90
2869;DHT22;1442;47.448;8.582;2024-03-25T10:14:40;9.30;99.90
2869;DHT22;1442;47.448;8.582;2024-03-25T10:17:06;9.30;99.90
2869;DHT22;1442;47.448;8.582;2024-03-25T10:19:32;9.30;99.90
2869;DHT22;1442;47.448;8.582;2024-03-25T10:22:03;9.30;99.90
2869;DHT22;1442;47.448;8.582;2024-03-25T10:24:37;9.40;99.90
2869;DHT22;1442;47.448;8.582;2024-03-25T10:27:04;9.50;99.90
2869;DHT22;1442;47.448;8.582;2024-03-25T10:29:30;9.50;99.90
2869;DHT22;1442;47.448;8.582;2024-03-25T10:31:59;9.50;99.90
2869;DHT22;1442;47.448;8.582;2024-03-25T10:34:25;9.50;99.90
2869;DHT22;1442;47.448;8.582;2024-03-25T10:36:56;9.60;99.90
2869;DHT22;1442;47.448;8.582;2024-03-25T10:39:27;9.60;99.90
2869;DHT22;1442;47.448;8.582;2024-03-25T10:41:55;9.70;99.90
2869;DHT22;1442;47.448;8.582;2024-03-25T10:44:24;9.80;99.90
2869;DHT22;1442;47.448;8.582;2024-03-25T10:46:55;9.80;99.90
2869;DHT22;1442;47.448;8.582;2024-03-25T10:49:32;9.90;99.90
2869;DHT22;1442;47.448;8.582;2024-03-25T10:51:59;9.90;99.90
2869;DHT22;1442;47.448;8.582;2024-03-25T10:54:26;9.80;99.90
2869;DHT22;1442;47.448;8.582;2024-03-25T10:56:52;9.80;99.90
2869;DHT22;1442;47.448;8.582;2024-03-25T10:59:20;9.90;99.90
2869;DHT22;1442;47.448;8.582;2024-03-25T11:01:47;9.80;99.90
2869;DHT22;1442;47.448;8.582;2024-03-25T11:04:14;9.80;99.90
2869;DHT22;1442;47.448;8.582;2024-03-25T11:06:40;9.80;99.90
2869;DHT22;1442;47.448;8.582;2024-03-25T11:09:06;9.90;99.90
2869;DHT22;1442;47.448;8.582;2024-03-25T11:11:32;9.90;99.90
2869;DHT22;1442;47.448;8.582;2024-03-25T11:13:58;9.90;99.90
2869;DHT22;1442;47.448;8.582;2024-03-25T11:16:29;10.00;99.90
2869;DHT22;1442;47.448;8.582;2024-03-25T11:19:00;10.10;99.90
2869;DHT22;1442;47.448;8.582;2024-03-25T11:21:26;10.10;99.90
2869;DHT22;1442;47.448;8.582;2024-03-25T11:23:52;10.10;99.90
2869;DHT22;1442;47.448;8.582;2024-03-25T11:26:22;10.10;99.90
2869;DHT22;1442;47.448;8.582;2024-03-25T11:28:49;10.10;99.90
2869;DHT22;1442;47.448;8.582;2024-03-25T11:31:16;10.10;99.90
2869;DHT22;1442;47.448;8.582;2024-03-25T11:33:44;10.10;99.90
2869;DHT22;1442;47.448;8.582;2024-03-25T11:36:11;10.10;99.90
2869;DHT22;1442;47.448;8.582;2024-03-25T11:38:37;10.10;99.90
2869;DHT22;1442;47.448;8.582;2024-03-25T11:41:03;10.10;99.90
2869;DHT22;1442;47.448;8.582;2024-03-25T11:43:29;10.20;99.90
2869;DHT22;1442;47.448;8.582;2024-03-25T11:45:54;10.20;99.90
2869;DHT22;1442;47.448;8.582;2024-03-25T11:48:20;10.20;99.90
2869;DHT22;1442;47.448;8.582;2024-03-25T11:50:46;10.20;99.90
2869;DHT22;1442;47.448;8.582;2024-03-25T11:53:14;10.30;99.90
2869;DHT22;1442;47.448;8.582;2024-03-25T11:55:40;10.30;99.90
2869;DHT22;1442;47.448;8.582;2024-03-25T11:58:07;10.40;99.90
2869;DHT22;1442;47.448;8.582;2024-03-25T12:00:33;10.30;99.90
2869;DHT22;1442;47.448;8.582;2024-03-25T12:02:59;10.40;99.90
2869;DHT22;1442;47.448;8.582;2024-03-25T12:05:25;10.40;99.90
2869;DHT22;1442;47.448;8.582;2024-03-25T12:07:51;10.40;99.90
2869;DHT22;1442;47.448;8.582;2024-03-25T12:10:18;10.30;99.90
2869;DHT22;1442;47.448;8.582;2024-03-25T12:13:03;10.40;99.90
2869;DHT22;1442;47.448;8.582;2024-03-25T12:15:29;10.40;99.90
2869;DHT22;1442;47.448;8.582;2024-03-25T12:17:55;10.50;99.90
2869;DHT22;1442;47.448;8.582;2024-03-25T12:20:21;10.60;99.90
2869;DHT22;1442;47.448;8.582;2024-03-25T12:22:49;10.60;99.90
2869;DHT22;1442;47.448;8.582;2024-03-25T12:25:14;10.80;99.90
2869;DHT22;1442;47.448;8.582;2024-03-25T12:27:46;10.80;99.90
2869;DHT22;1442;47.448;8.582;2024-03-25T12:30:12;10.70;99.90
2869;DHT22;1442;47.448;8.582;2024-03-25T12:32:39;10.80;99.90
2869;DHT22;1442;47.448;8.582;2024-03-25T12:35:08;10.80;99.90
2869;DHT22;1442;47.448;8.582;2024-03-25T12:37:36;10.80;99.90
2869;DHT22;1442;47.448;8.582;2024-03-25T12:40:02;10.80;99.90
2869;DHT22;1442;47.448;8.582;2024-03-25T12:42:30;10.80;99.90
2869;DHT22;1442;47.448;8.582;2024-03-25T12:44:57;10.80;99.90
2869;DHT22;1442;47.448;8.582;2024-03-25T12:47:23;10.90;99.90
2869;DHT22;1442;47.448;8.582;2024-03-25T12:49:49;10.90;99.90
2869;DHT22;1442;47.448;8.582;2024-03-25T12:52:14;10.90;99.90
2869;DHT22;1442;47.448;8.582;2024-03-25T12:54:40;10.90;99.90
2869;DHT22;1442;47.448;8.582;2024-03-25T12:57:07;11.00;99.90
2869;DHT22;1442;47.448;8.582;2024-03-25T12:59:32;11.00;99.90
2869;DHT22;1442;47.448;8.582;2024-03-25T13:02:00;11.00;99.90
2869;DHT22;1442;47.448;8.582;2024-03-25T13:04:26;11.10;99.90
2869;DHT22;1442;47.448;8.582;2024-03-25T13:06:52;11.10;99.90
2869;DHT22;1442;47.448;8.582;2024-03-25T13:09:18;11.10;99.90
2869;DHT22;1442;47.448;8.582;2024-03-25T13:11:44;11.10;99.90
2869;DHT22;1442;47.448;8.582;2024-03-25T13:14:11;11.10;99.90
2869;DHT22;1442;47.448;8.582;2024-03-25T13:16:37;11.10;99.90
2869;DHT22;1442;47.448;8.582;2024-03-25T13:19:04;11.20;99.90
2869;DHT22;1442;47.448;8.582;2024-03-25T13:21:30;11.20;99.90
2869;DHT22;1442;47.448;8.582;2024-03-25T13:23:56;11.30;99.90
2869;DHT22;1442;47.448;8.582;2024-03-25T13:26:22;11.30;99.90
2869;DHT22;1442;47.448;8.582;2024-03-25T13:28:48;11.30;99.90
2869;DHT22;1442;47.448;8.582;2024-03-25T13:31:13;11.30;99.90
2869;DHT22;1442;47.448;8.582;2024-03-25T13:33:40;11.30;99.90
2869;DHT22;1442;47.448;8.582;2024-03-25T13:36:08;11.40;99.90
2869;DHT22;1442;47.448;8.582;2024-03-25T13:38:34;11.40;99.90
2869;DHT22;1442;47.448;8.582;2024-03-25T13:41:00;11.40;99.90
2869;DHT22;1442;47.448;8.582;2024-03-25T13:43:26;11.50;99.90
2869;DHT22;1442;47.448;8.582;2024-03-25T13:45:52;11.50;99.90
2869;DHT22;1442;47.448;8.582;2024-03-25T13:48:18;11.50;99.90
2869;DHT22;1442;47.448;8.582;2024-03-25T13:50:44;11.50;99.90
2869;DHT22;1442;47.448;8.582;2024-03-25T13:53:11;11.60;99.90
2869;DHT22;1442;47.448;8.582;2024-03-25T13:55:36;11.60;99.90
2869;DHT22;1442;47.448;8.582;2024-03-25T13:58:02;11.50;99.90
2869;DHT22;1442;47.448;8.582;2024-03-25T14:00:28;11.50;99.90
2869;DHT22;1442;47.448;8.582;2024-03-25T14:02:55;11.50;99.90
2869;DHT22;1442;47.448;8.582;2024-03-25T14:05:21;11.60;99.90
2869;DHT22;1442;47.448;8.582;2024-03-25T14:07:47;11.50;99.90
2869;DHT22;1442;47.448;8.582;2024-03-25T14:10:14;11.50;99.90
2869;DHT22;1442;47.448;8.582;2024-03-25T14:12:40;11.60;99.90
2869;DHT22;1442;47.448;8.582;2024-03-25T14:15:07;11.60;99.90
2869;DHT22;1442;47.448;8.582;2024-03-25T14:17:33;11.60;99.90
2869;DHT22;1442;47.448;8.582;2024-03-25T14:19:59;11.70;99.90
2869;DHT22;1442;47.448;8.582;2024-03-25T14:22:25;11.80;99.90
2869;DHT22;1442;47.448;8.582;2024-03-25T14:24:52;11.80;99.90
2869;DHT22;1442;47.448;8.582;2024-03-25T14:27:19;11.80;99.90
2869;DHT22;1442;47.448;8.582;2024-03-25T14:29:45;11.80;99.90
2869;DHT22;1442;47.448;8.582;2024-03-25T14:32:11;11.80;99.90
2869;DHT22;1442;47.448;8.582;2024-03-25T14:34:37;11.80;99.90
2869;DHT22;1442;47.448;8.582;2024-03-25T14:37:03;11.90;99.90
2869;DHT22;1442;47.448;8.582;2024-03-25T14:39:29;11.90;99.90
2869;DHT22;1442;47.448;8.582;2024-03-25T14:41:55;11.90;99.90
2869;DHT22;1442;47.448;8.582;2024-03-25T14:44:22;11.90;99.90
2869;DHT22;1442;47.448;8.582;2024-03-25T14:46:48;11.90;99.90
2869;DHT22;1442;47.448;8.582;2024-03-25T14:49:14;12.00;99.90
2869;DHT22;1442;47.448;8.582;2024-03-25T14:51:40;11.90;99.90
2869;DHT22;1442;47.448;8.582;2024-03-25T14:54:06;11.90;99.90
2869;DHT22;1442;47.448;8.582;2024-03-25T14:56:32;12.00;99.90
2869;DHT22;1442;47.448;8.582;2024-03-25T14:58:58;11.90;99.90
2869;DHT22;1442;47.448;8.582;2024-03-25T15:01:26;11.90;99.90
2869;DHT22;1442;47.448;8.582;2024-03-25T15:03:51;12.00;99.90
2869;DHT22;1442;47.448;8.582;2024-03-25T15:06:17;12.00;99.90
2869;DHT22;1442;47.448;8.582;2024-03-25T15:08:43;12.10;99.90
2869;DHT22;1442;47.448;8.582;2024-03-25T15:11:10;12.10;99.90
2869;DHT22;1442;47.448;8.582;2024-03-25T15:13:36;12.10;99.90
2869;DHT22;1442;47.448;8.582;2024-03-25T15:16:04;12.10;99.90
2869;DHT22;1442;47.448;8.582;2024-03-25T15:18:31;12.20;99.90
2869;DHT22;1442;47.448;8.582;2024-03-25T15:21:01;12.10;99.90
2869;DHT22;1442;47.448;8.582;2024-03-25T15:23:27;12.20;99.90
2869;DHT22;1442;47.448;8.582;2024-03-25T15:25:53;12.10;99.90
2869;DHT22;1442;47.448;8.582;2024-03-25T15:28:19;12.10;99.90
2869;DHT22;1442;47.448;8.582;2024-03-25T15:30:46;12.10;99.90
2869;DHT22;1442;47.448;8.582;2024-03-25T15:33:12;12.00;99.90
2869;DHT22;1442;47.448;8.582;2024-03-25T15:35:39;12.00;99.90
2869;DHT22;1442;47.448;8.582;2024-03-25T15:38:05;12.00;99.90
2869;DHT22;1442;47.448;8.582;2024-03-25T15:40:31;12.00;99.90
2869;DHT22;1442;47.448;8.582;2024-03-25T15:42:58;12.00;99.90
2869;DHT22;1442;47.448;8.582;2024-03-25T15:45:24;12.00;99.90
2869;DHT22;1442;47.448;8.582;2024-03-25T15:47:50;12.10;99.90
2869;DHT22;1442;47.448;8.582;2024-03-25T15:50:16;12.10;99.90
2869;DHT22;1442;47.448;8.582;2024-03-25T15:52:43;12.10;99.90
2869;DHT22;1442;47.448;8.582;2024-03-25T15:55:09;12.10;99.90
2869;DHT22;1442;47.448;8.582;2024-03-25T15:57:35;12.10;99.90
2869;DHT22;1442;47.448;8.582;2024-03-25T16:00:01;12.10;99.90
2869;DHT22;1442;47.448;8.582;2024-03-25T16:02:28;12.10;99.90
2869;DHT22;1442;47.448;8.582;2024-03-25T16:04:54;12.00;99.90
2869;DHT22;1442;47.448;8.582;2024-03-25T16:07:19;12.10;99.90